Terminal Aerodrome Forecast
Issued by NWS Jackson, KY

Home | Current Version | Previous Version | Text Only | Print | Product List | Glossary On
Versions: 1 2 3 4 5 6 7 8 9 10 11 12 13 14
000
FTUS43 KJKL 292337
TAFLOZ
TAF
KLOZ 292337Z 3000/3024 VRB06KT P6SM VCSH BKN045
     FM300100 00000KT P6SM SCT200
     FM300700 00000KT 4SM BR SCT002
     FM301000 00000KT 2SM BR SCT002
     FM301300 35007KT P6SM FEW050=

USA.gov is the U.S. government's official web portal to all federal, state and local government web resources and services.